createdAt,value
2019-05-22T00:01:15.510Z,92.75
2019-05-22T00:02:24.793Z,92.81
2019-05-22T00:03:34.246Z,92.72
2019-05-22T00:04:40.323Z,92.57
2019-05-22T00:05:46.109Z,92.49
2019-05-22T00:06:52.675Z,92.35
2019-05-22T00:07:59.573Z,92.37
2019-05-22T00:09:08.257Z,92.67
2019-05-22T00:10:16.482Z,92.63
2019-05-22T00:11:21.495Z,92.52
2019-05-22T00:12:27.560Z,92.31
2019-05-22T00:13:31.985Z,92.47
2019-05-22T00:14:37.674Z,92.48
2019-05-22T00:15:44.033Z,91.88
2019-05-22T00:16:50.083Z,92.22
2019-05-22T00:17:54.583Z,92.34
2019-05-22T00:18:59.730Z,92.58
2019-05-22T00:20:06.253Z,92.54
2019-05-22T00:21:13.592Z,92.37
2019-05-22T00:22:20.147Z,92.43
2019-05-22T00:23:26.218Z,92.35
2019-05-22T00:24:32.177Z,92.30
2019-05-22T00:25:38.481Z,92.17
2019-05-22T00:26:43.912Z,92.11
2019-05-22T00:27:51.074Z,92.32
2019-05-22T00:28:56.448Z,92.31
2019-05-22T00:30:02.732Z,92.52
2019-05-22T00:31:08.264Z,92.58
2019-05-22T00:32:14.351Z,92.50
2019-05-22T00:33:19.548Z,92.43
2019-05-22T00:34:26.039Z,92.42
2019-05-22T00:35:31.849Z,92.32
2019-05-22T00:36:36.921Z,92.42
2019-05-22T00:37:43.094Z,92.54
2019-05-22T00:38:48.082Z,92.71
2019-05-22T00:39:52.844Z,92.86
2019-05-22T00:40:58.986Z,92.82
2019-05-22T00:42:06.103Z,92.73
2019-05-22T00:43:14.540Z,92.80
2019-05-22T00:44:19.368Z,92.71
2019-05-22T00:45:25.923Z,92.81
2019-05-22T00:46:30.946Z,92.95
2019-05-22T00:47:37.754Z,92.99
2019-05-22T00:48:44.561Z,92.66
2019-05-22T00:49:52.207Z,92.60
2019-05-22T00:51:01.066Z,92.51
2019-05-22T00:52:07.204Z,92.64
2019-05-22T00:53:26.308Z,92.77
2019-05-22T00:54:45.031Z,92.79
2019-05-22T00:55:52.137Z,92.69
2019-05-22T00:57:00.908Z,92.67
2019-05-22T00:58:26.648Z,92.64
2019-05-22T00:59:35.385Z,92.55
2019-05-22T01:00:44.635Z,92.62
2019-05-22T01:01:55.849Z,92.70
2019-05-22T01:03:02.539Z,92.76
2019-05-22T01:04:08.978Z,92.68
2019-05-22T01:05:13.966Z,92.65
2019-05-22T01:06:21.663Z,93.17
2019-05-22T01:07:31.030Z,93.18
2019-05-22T01:08:37.541Z,93.15
2019-05-22T01:09:46.554Z,92.98
2019-05-22T01:10:53.395Z,93.12
2019-05-22T01:12:00.502Z,93.24
2019-05-22T01:13:04.999Z,93.08
2019-05-22T01:14:10.150Z,93.34
2019-05-22T01:15:19.268Z,93.08
2019-05-22T01:16:25.519Z,92.87
2019-05-22T01:17:33.421Z,93.00
2019-05-22T01:18:39.440Z,93.19
2019-05-22T01:19:46.950Z,92.94
2019-05-22T01:20:53.413Z,93.05
2019-05-22T01:22:00.459Z,93.18
2019-05-22T01:23:06.554Z,93.00
2019-05-22T01:24:13.192Z,93.04
2019-05-22T01:25:20.901Z,93.21
2019-05-22T01:26:25.993Z,93.03
2019-05-22T01:27:33.208Z,92.94
2019-05-22T01:28:39.105Z,92.78
2019-05-22T01:29:45.884Z,92.67
2019-05-22T01:30:58.015Z,92.88
2019-05-22T01:32:16.011Z,93.20
2019-05-22T01:33:22.915Z,93.01
2019-05-22T01:34:30.224Z,92.84
2019-05-22T01:35:37.111Z,92.86
2019-05-22T01:36:47.461Z,93.20
2019-05-22T01:37:53.149Z,93.70
2019-05-22T01:39:01.541Z,93.77
2019-05-22T01:40:16.289Z,93.72
2019-05-22T01:41:23.193Z,93.57
2019-05-22T01:42:32.637Z,93.98
2019-05-22T01:43:40.395Z,93.70
2019-05-22T01:44:59.771Z,93.74
2019-05-22T01:45:55.168Z,93.50
2019-05-22T01:47:04.508Z,93.23
2019-05-22T01:48:15.958Z,93.17
2019-05-22T01:49:21.662Z,93.00
2019-05-22T01:50:41.929Z,92.98
2019-05-22T01:51:46.667Z,92.81
2019-05-22T01:52:52.586Z,93.02
2019-05-22T01:53:57.820Z,93.02
2019-05-22T01:55:03.235Z,93.24
2019-05-22T01:56:11.671Z,93.06
2019-05-22T01:57:17.801Z,93.08
2019-05-22T01:58:23.890Z,92.83
2019-05-22T01:59:30.255Z,93.02
2019-05-22T02:00:36.728Z,93.30
2019-05-22T02:01:42.956Z,93.21
2019-05-22T02:02:49.370Z,93.08
2019-05-22T02:03:56.048Z,93.18
2019-05-22T02:05:01.918Z,93.16
2019-05-22T02:06:09.595Z,93.30
2019-05-22T02:07:14.391Z,93.51
2019-05-22T02:08:21.172Z,93.72
2019-05-22T02:09:35.664Z,93.50
2019-05-22T02:10:43.017Z,93.33
2019-05-22T02:11:52.185Z,93.05
2019-05-22T02:12:59.943Z,93.31
2019-05-22T02:14:14.409Z,93.37
2019-05-22T02:15:20.401Z,93.59
2019-05-22T02:16:26.517Z,93.76
2019-05-22T02:17:35.512Z,93.44
2019-05-22T02:18:43.606Z,93.25
2019-05-22T02:19:49.562Z,93.34
2019-05-22T02:20:56.070Z,93.32
2019-05-22T02:22:02.505Z,93.23
2019-05-22T02:23:08.916Z,93.20
2019-05-22T02:24:14.671Z,93.37
2019-05-22T02:25:20.196Z,93.31
2019-05-22T02:26:25.896Z,93.41
2019-05-22T02:27:31.759Z,93.37
2019-05-22T02:28:39.550Z,93.04
2019-05-22T02:29:44.628Z,92.98
2019-05-22T02:30:50.837Z,93.02
2019-05-22T02:31:58.008Z,93.54
2019-05-22T02:33:05.029Z,93.48
2019-05-22T02:34:10.614Z,92.95
2019-05-22T02:35:16.813Z,92.83
2019-05-22T02:36:22.880Z,92.70
2019-05-22T02:37:29.203Z,92.57
2019-05-22T02:38:35.639Z,92.77
2019-05-22T02:39:41.874Z,92.63
2019-05-22T02:40:49.517Z,92.96
2019-05-22T02:41:59.072Z,92.68
2019-05-22T02:43:04.239Z,92.81
2019-05-22T02:44:09.882Z,92.84
2019-05-22T02:45:14.372Z,92.69
2019-05-22T02:46:20.996Z,92.89
2019-05-22T02:47:27.061Z,92.85
2019-05-22T02:48:33.560Z,92.94
2019-05-22T02:49:39.672Z,92.95
2019-05-22T02:50:45.859Z,93.10
2019-05-22T02:51:50.582Z,93.13
2019-05-22T02:52:56.208Z,92.95
2019-05-22T02:54:02.152Z,92.70
2019-05-22T02:55:07.455Z,92.56
2019-05-22T02:56:12.318Z,92.50
2019-05-22T02:57:17.844Z,92.42
2019-05-22T02:58:22.332Z,92.34
2019-05-22T02:59:28.171Z,92.46
2019-05-22T03:00:41.705Z,92.68
2019-05-22T03:01:47.552Z,92.81
2019-05-22T03:02:54.537Z,93.08
2019-05-22T03:03:59.580Z,92.85
2019-05-22T03:05:07.429Z,93.01
2019-05-22T03:06:14.606Z,92.74
2019-05-22T03:07:19.874Z,92.44
2019-05-22T03:08:30.642Z,92.35
2019-05-22T03:09:37.081Z,92.31
2019-05-22T03:10:44.243Z,92.37
2019-05-22T03:11:54.847Z,92.21
2019-05-22T03:13:00.478Z,92.11
2019-05-22T03:14:09.464Z,92.06
2019-05-22T03:15:17.378Z,92.32
2019-05-22T03:16:23.615Z,92.27
2019-05-22T03:17:31.742Z,92.12
2019-05-22T03:18:36.440Z,92.11
2019-05-22T03:19:45.732Z,92.12
2019-05-22T03:20:50.413Z,92.23
2019-05-22T03:21:55.842Z,92.56
2019-05-22T03:23:31.217Z,92.32
2019-05-22T03:24:37.337Z,92.33
2019-05-22T03:25:43.693Z,92.03
2019-05-22T03:26:49.485Z,92.16
2019-05-22T03:27:54.983Z,92.32
2019-05-22T03:28:59.961Z,92.62
2019-05-22T03:30:05.525Z,92.73
2019-05-22T03:31:11.698Z,92.85
2019-05-22T03:32:16.879Z,92.78
2019-05-22T03:33:22.393Z,92.75
2019-05-22T03:34:27.358Z,92.73
2019-05-22T03:35:35.841Z,93.03
2019-05-22T03:36:41.734Z,92.68
2019-05-22T03:37:48.129Z,93.17
2019-05-22T03:38:52.911Z,93.10
2019-05-22T03:39:58.647Z,92.93
2019-05-22T03:41:03.343Z,92.99
2019-05-22T03:42:11.571Z,92.79
2019-05-22T03:43:20.510Z,93.07
2019-05-22T03:44:26.927Z,92.71
2019-05-22T03:45:32.829Z,93.24
2019-05-22T03:46:42.577Z,93.34
2019-05-22T03:47:47.270Z,93.23
2019-05-22T03:48:52.815Z,93.25
2019-05-22T03:49:58.754Z,93.32
2019-05-22T03:51:13.199Z,93.37
2019-05-22T03:52:17.895Z,93.67
2019-05-22T03:53:23.984Z,93.55
2019-05-22T03:54:29.924Z,93.51
2019-05-22T03:55:35.700Z,93.64
2019-05-22T03:56:41.581Z,93.62
2019-05-22T03:57:46.636Z,93.56
2019-05-22T03:58:51.863Z,93.44
2019-05-22T03:59:57.574Z,93.50
2019-05-22T04:01:02.853Z,93.48
2019-05-22T04:02:09.037Z,93.14
2019-05-22T04:03:16.528Z,93.59
2019-05-22T04:04:40.298Z,93.60
2019-05-22T04:05:46.983Z,93.21
2019-05-22T04:06:52.939Z,93.51
2019-05-22T04:07:58.388Z,93.71
2019-05-22T04:09:12.904Z,93.59
2019-05-22T04:10:19.050Z,93.18
2019-05-22T04:11:27.077Z,93.43
2019-05-22T04:12:34.825Z,93.12
2019-05-22T04:13:40.603Z,93.26
2019-05-22T04:14:46.072Z,92.96
2019-05-22T04:15:52.619Z,93.25
2019-05-22T04:16:57.245Z,93.52
2019-05-22T04:18:15.965Z,93.55
2019-05-22T04:19:21.591Z,93.34
2019-05-22T04:20:28.220Z,93.20
2019-05-22T04:21:32.725Z,93.21
2019-05-22T04:22:38.304Z,93.29
2019-05-22T04:23:42.748Z,93.37
2019-05-22T04:24:49.667Z,93.70
2019-05-22T04:25:55.447Z,93.74
2019-05-22T04:27:01.658Z,93.50
2019-05-22T04:28:06.996Z,93.88
2019-05-22T04:29:12.354Z,94.04
2019-05-22T04:30:18.477Z,94.07
2019-05-22T04:31:36.069Z,93.65
2019-05-22T04:32:43.501Z,93.97
2019-05-22T04:33:49.197Z,94.26
2019-05-22T04:34:54.409Z,94.23
2019-05-22T04:36:02.834Z,94.07
2019-05-22T04:37:08.910Z,94.13
2019-05-22T04:38:13.959Z,94.45
2019-05-22T04:39:24.451Z,94.35
2019-05-22T04:40:43.196Z,94.62
2019-05-22T04:41:47.637Z,94.95
2019-05-22T04:42:54.606Z,94.80
2019-05-22T04:43:59.392Z,95.12
2019-05-22T04:45:14.562Z,94.98
2019-05-22T04:46:19.326Z,95.22
2019-05-22T04:47:24.724Z,95.20
2019-05-22T04:48:31.470Z,95.10
2019-05-22T04:49:37.084Z,95.19
2019-05-22T04:50:42.060Z,95.19
2019-05-22T04:51:47.183Z,95.46
2019-05-22T04:52:53.237Z,95.43
2019-05-22T04:53:59.130Z,95.52
2019-05-22T04:55:07.273Z,95.46
2019-05-22T04:56:12.263Z,95.41
2019-05-22T04:57:16.875Z,95.53
2019-05-22T04:58:23.013Z,95.52
2019-05-22T04:59:27.876Z,95.21
2019-05-22T05:00:34.958Z,95.09
2019-05-22T05:01:40.089Z,95.00
2019-05-22T05:02:45.312Z,95.25
2019-05-22T05:03:49.828Z,95.61
2019-05-22T05:04:54.875Z,95.66
2019-05-22T05:06:00.116Z,95.64
2019-05-22T05:07:05.169Z,95.91
2019-05-22T05:08:11.033Z,95.83
2019-05-22T05:09:16.753Z,96.03
2019-05-22T05:10:21.889Z,95.89
2019-05-22T05:11:27.001Z,95.74
2019-05-22T05:12:31.514Z,95.86
2019-05-22T05:13:36.635Z,95.92
2019-05-22T05:14:41.821Z,95.87
2019-05-22T05:15:46.943Z,95.76
2019-05-22T05:16:51.447Z,95.90
2019-05-22T05:17:56.446Z,95.91
2019-05-22T05:19:01.310Z,95.11
2019-05-22T05:20:21.654Z,95.32
2019-05-22T05:21:14.178Z,95.51
2019-05-22T05:22:22.219Z,95.51
2019-05-22T05:23:27.683Z,95.58
2019-05-22T05:24:32.721Z,95.68
2019-05-22T05:25:37.204Z,95.82
2019-05-22T05:26:42.521Z,95.76
2019-05-22T05:27:50.388Z,95.61
2019-05-22T05:28:56.371Z,95.35
2019-05-22T05:30:01.062Z,95.36
2019-05-22T05:31:06.756Z,95.40
2019-05-22T05:32:11.915Z,95.17
2019-05-22T05:33:17.319Z,95.01
2019-05-22T05:34:33.604Z,94.96
2019-05-22T05:35:38.992Z,95.19
2019-05-22T05:36:44.764Z,95.29
2019-05-22T05:37:50.069Z,95.15
2019-05-22T05:38:55.985Z,94.69
2019-05-22T05:40:07.874Z,94.77
2019-05-22T05:41:12.660Z,94.24
2019-05-22T05:42:19.242Z,94.40
2019-05-22T05:43:24.784Z,94.38
2019-05-22T05:44:30.111Z,94.44
2019-05-22T05:45:35.143Z,94.25
2019-05-22T05:46:40.193Z,94.20
2019-05-22T05:47:45.168Z,94.58
2019-05-22T05:48:50.974Z,94.94
2019-05-22T05:49:55.962Z,94.62
2019-05-22T05:51:08.944Z,94.58
2019-05-22T05:52:14.821Z,94.28
2019-05-22T05:53:21.031Z,94.13
2019-05-22T05:54:30.222Z,94.34
2019-05-22T05:56:02.157Z,94.73
2019-05-22T05:57:35.833Z,94.90
2019-05-22T05:58:41.506Z,94.60
2019-05-22T05:59:46.282Z,94.89
2019-05-22T06:00:55.374Z,94.78
2019-05-22T06:02:00.562Z,94.78
2019-05-22T06:03:33.174Z,94.68
2019-05-22T06:04:39.096Z,94.83
2019-05-22T06:05:44.620Z,94.91
2019-05-22T06:07:00.579Z,94.98
2019-05-22T06:08:03.572Z,94.68
2019-05-22T06:09:12.093Z,94.98
2019-05-22T06:10:30.317Z,95.22
2019-05-22T06:11:41.001Z,95.11
2019-05-22T06:12:48.130Z,95.34
2019-05-22T06:13:52.570Z,95.33
2019-05-22T06:14:57.899Z,95.10
2019-05-22T06:16:09.094Z,95.25
2019-05-22T06:17:32.532Z,95.62
2019-05-22T06:18:39.971Z,95.46
2019-05-22T06:19:51.767Z,95.33
2019-05-22T06:21:03.863Z,94.89
2019-05-22T06:22:05.058Z,94.58
2019-05-22T06:23:31.971Z,94.60
2019-05-22T06:24:43.226Z,95.01
2019-05-22T06:25:47.826Z,95.73
2019-05-22T06:26:56.263Z,95.01
2019-05-22T06:28:02.326Z,94.99
2019-05-22T06:29:08.637Z,95.25
2019-05-22T06:30:21.727Z,94.89
2019-05-22T06:31:55.521Z,95.02
2019-05-22T06:33:10.317Z,95.27
2019-05-22T06:34:15.454Z,95.31
2019-05-22T06:35:21.261Z,95.63
2019-05-22T06:36:26.790Z,95.54
2019-05-22T06:37:56.468Z,95.43
2019-05-22T06:39:03.683Z,95.09
2019-05-22T06:40:10.567Z,95.32
2019-05-22T06:41:16.724Z,95.79
2019-05-22T06:42:21.864Z,95.42
2019-05-22T06:43:30.871Z,95.19
2019-05-22T06:44:37.130Z,95.53
2019-05-22T06:45:42.081Z,95.49
2019-05-22T06:46:48.450Z,95.11
2019-05-22T06:47:53.703Z,95.10
2019-05-22T06:49:01.657Z,94.94
2019-05-22T06:50:07.465Z,94.62
2019-05-22T06:51:19.418Z,94.79
2019-05-22T06:52:19.534Z,95.13
2019-05-22T06:53:24.350Z,95.17
2019-05-22T06:54:29.922Z,94.75
2019-05-22T06:55:34.465Z,94.69
2019-05-22T06:56:39.733Z,94.91
2019-05-22T06:57:44.225Z,95.08
2019-05-22T06:58:49.278Z,94.81
2019-05-22T07:00:12.340Z,95.03
2019-05-22T07:01:02.394Z,94.91
2019-05-22T07:02:08.810Z,94.74
2019-05-22T07:03:19.299Z,95.20
2019-05-22T07:04:24.235Z,95.37
2019-05-22T07:05:29.579Z,95.58
2019-05-22T07:06:34.151Z,95.43
2019-05-22T07:07:39.400Z,95.37
2019-05-22T07:08:44.856Z,95.66
2019-05-22T07:09:50.278Z,95.50
2019-05-22T07:10:55.161Z,95.38
2019-05-22T07:12:00.272Z,95.07
2019-05-22T07:13:05.959Z,94.49
2019-05-22T07:14:11.094Z,94.39
2019-05-22T07:15:23.361Z,94.86
2019-05-22T07:16:28.680Z,94.69
2019-05-22T07:17:35.009Z,94.09
2019-05-22T07:18:41.102Z,94.51
2019-05-22T07:19:47.164Z,94.51
2019-05-22T07:20:53.370Z,94.59
2019-05-22T07:21:58.772Z,94.13
2019-05-22T07:23:04.914Z,94.42
2019-05-22T07:24:11.364Z,94.04
2019-05-22T07:25:17.048Z,94.42
2019-05-22T07:26:21.730Z,94.64
2019-05-22T07:27:27.466Z,93.91
2019-05-22T07:28:33.355Z,94.09
2019-05-22T07:29:38.430Z,94.10
2019-05-22T07:30:44.115Z,93.67
2019-05-22T07:31:49.090Z,92.92
2019-05-22T07:32:54.619Z,93.32
2019-05-22T07:34:00.283Z,93.47
2019-05-22T07:35:07.694Z,92.59
2019-05-22T07:36:16.644Z,93.01
2019-05-22T07:37:21.883Z,93.42
2019-05-22T07:38:27.569Z,93.62
2019-05-22T07:39:32.202Z,93.43
2019-05-22T07:40:38.417Z,93.61
2019-05-22T07:41:43.033Z,93.19
2019-05-22T07:42:48.286Z,93.40
2019-05-22T07:43:52.846Z,92.72
2019-05-22T07:44:57.821Z,92.40
2019-05-22T07:46:02.985Z,92.57
2019-05-22T07:47:08.656Z,91.80
2019-05-22T07:48:13.865Z,92.34
2019-05-22T07:49:19.587Z,92.27
2019-05-22T07:50:25.069Z,92.16
2019-05-22T07:51:31.577Z,92.24
2019-05-22T07:52:36.553Z,91.45
2019-05-22T07:53:42.461Z,92.32
2019-05-22T07:54:47.883Z,92.13
2019-05-22T07:55:54.622Z,91.89
2019-05-22T07:57:02.723Z,91.43
2019-05-22T07:58:16.264Z,92.34
2019-05-22T07:59:21.118Z,92.29
2019-05-22T08:00:26.463Z,92.50
2019-05-22T08:01:31.105Z,92.05
2019-05-22T08:02:41.877Z,92.42
2019-05-22T08:03:47.637Z,92.71
2019-05-22T08:04:52.822Z,92.52
2019-05-22T08:05:58.829Z,92.85
2019-05-22T08:07:04.656Z,92.32
2019-05-22T08:08:09.132Z,92.24
2019-05-22T08:09:14.819Z,91.74
2019-05-22T08:10:22.054Z,91.33
2019-05-22T08:11:28.378Z,91.58
2019-05-22T08:12:33.903Z,91.83
2019-05-22T08:13:40.422Z,91.19
2019-05-22T08:14:46.047Z,91.26
2019-05-22T08:15:51.135Z,91.34
2019-05-22T08:16:56.037Z,90.28
2019-05-22T08:18:02.254Z,91.28
2019-05-22T08:19:06.905Z,90.86
2019-05-22T08:20:12.778Z,90.94
2019-05-22T08:21:17.617Z,91.12
2019-05-22T08:22:23.231Z,90.98
2019-05-22T08:23:28.298Z,90.97
2019-05-22T08:24:33.794Z,90.74
2019-05-22T08:25:39.922Z,90.55
2019-05-22T08:26:54.285Z,90.90
2019-05-22T08:27:52.101Z,90.20
2019-05-22T08:28:57.525Z,91.22
2019-05-22T08:30:02.742Z,91.46
2019-05-22T08:31:10.490Z,90.75
2019-05-22T08:32:16.615Z,90.20
2019-05-22T08:33:22.960Z,90.99
2019-05-22T08:34:27.489Z,90.76
2019-05-22T08:35:33.258Z,90.32
2019-05-22T08:36:38.906Z,90.33
2019-05-22T08:37:45.321Z,90.15
2019-05-22T08:38:50.489Z,89.55
2019-05-22T08:39:55.643Z,90.13
2019-05-22T08:41:01.953Z,89.71
2019-05-22T08:42:08.854Z,89.70
2019-05-22T08:43:13.713Z,90.02
2019-05-22T08:44:18.978Z,90.24
2019-05-22T08:45:23.538Z,90.16
2019-05-22T08:46:29.347Z,89.81
2019-05-22T08:47:33.839Z,90.40
2019-05-22T08:48:47.010Z,90.51
2019-05-22T08:49:45.906Z,90.38
2019-05-22T08:50:52.176Z,90.12
2019-05-22T08:51:57.156Z,90.27
2019-05-22T08:53:03.439Z,89.01
2019-05-22T08:54:08.806Z,89.88
2019-05-22T08:55:14.652Z,89.34
2019-05-22T08:56:19.489Z,90.02
2019-05-22T08:57:25.013Z,89.82
2019-05-22T08:58:30.347Z,88.80
2019-05-22T08:59:35.551Z,88.26
2019-05-22T09:00:40.605Z,87.98
2019-05-22T09:01:46.874Z,87.17
2019-05-22T09:02:51.804Z,88.29
2019-05-22T09:03:57.313Z,88.52
2019-05-22T09:05:02.150Z,86.79
2019-05-22T09:06:08.735Z,86.87
2019-05-22T09:07:14.113Z,85.82
2019-05-22T09:08:19.227Z,86.26
2019-05-22T09:09:25.912Z,86.68
2019-05-22T09:10:32.263Z,86.09
2019-05-22T09:11:36.769Z,85.76
2019-05-22T09:12:42.721Z,86.61
2019-05-22T09:13:47.230Z,85.43
2019-05-22T09:14:52.469Z,86.01
2019-05-22T09:16:01.754Z,84.64
2019-05-22T09:17:07.278Z,85.73
2019-05-22T09:18:12.129Z,85.38
2019-05-22T09:19:17.219Z,84.88
2019-05-22T09:20:22.640Z,84.83
2019-05-22T09:21:28.357Z,84.11
2019-05-22T09:22:40.761Z,84.34
2019-05-22T09:23:41.484Z,84.98
2019-05-22T09:24:47.681Z,85.49
2019-05-22T09:25:53.286Z,84.04
2019-05-22T09:26:57.794Z,85.22
2019-05-22T09:28:02.841Z,85.54
2019-05-22T09:29:07.503Z,85.69
2019-05-22T09:30:14.109Z,85.99
2019-05-22T09:31:18.807Z,84.80
2019-05-22T09:32:23.870Z,86.66
2019-05-22T09:33:29.205Z,87.13
2019-05-22T09:34:34.144Z,86.76
2019-05-22T09:35:39.673Z,85.36
2019-05-22T09:36:44.684Z,84.79
2019-05-22T09:37:49.374Z,84.56
2019-05-22T09:38:54.695Z,84.75
2019-05-22T09:39:59.182Z,84.94
2019-05-22T09:41:05.505Z,84.17
2019-05-22T09:42:10.086Z,84.17
2019-05-22T09:43:15.231Z,84.76
2019-05-22T09:44:20.516Z,86.14
2019-05-22T09:45:25.633Z,85.79
2019-05-22T09:46:30.562Z,85.50
2019-05-22T09:47:36.020Z,85.92
2019-05-22T09:48:40.672Z,85.92
2019-05-22T09:49:46.486Z,85.96
2019-05-22T09:50:51.754Z,85.81
2019-05-22T09:51:57.352Z,86.48
2019-05-22T09:53:02.357Z,86.74
2019-05-22T09:54:08.234Z,86.29
2019-05-22T09:55:13.170Z,86.48
2019-05-22T09:56:18.883Z,86.46
2019-05-22T09:57:24.580Z,85.50
2019-05-22T09:58:30.043Z,85.51
2019-05-22T09:59:35.342Z,85.25
2019-05-22T10:00:41.371Z,86.32
2019-05-22T10:01:46.024Z,86.29
2019-05-22T10:02:51.610Z,86.43
2019-05-22T10:03:56.053Z,85.66
2019-05-22T10:05:01.237Z,85.31
2019-05-22T10:06:07.526Z,86.51
2019-05-22T10:07:13.096Z,85.83
2019-05-22T10:08:18.131Z,85.07
2019-05-22T10:09:23.905Z,85.46
2019-05-22T10:10:29.099Z,85.09
2019-05-22T10:11:34.719Z,85.17
2019-05-22T10:12:39.305Z,85.25
2019-05-22T10:13:45.319Z,85.29
2019-05-22T10:14:50.344Z,85.84
2019-05-22T10:15:55.726Z,85.63
2019-05-22T10:17:00.967Z,85.75
2019-05-22T10:18:06.153Z,85.29
2019-05-22T10:19:11.183Z,85.47
2019-05-22T10:20:16.486Z,85.50
2019-05-22T10:21:21.826Z,85.33
2019-05-22T10:22:30.204Z,85.32
2019-05-22T10:23:35.639Z,85.91
2019-05-22T10:24:41.324Z,85.71
2019-05-22T10:25:45.881Z,85.57
2019-05-22T10:26:51.265Z,84.90
2019-05-22T10:27:59.196Z,84.59
2019-05-22T10:29:03.176Z,85.50
2019-05-22T10:30:11.647Z,85.86
2019-05-22T10:31:17.913Z,85.88
2019-05-22T10:32:23.006Z,85.39
2019-05-22T10:33:28.201Z,86.25
2019-05-22T10:34:32.963Z,85.58
2019-05-22T10:35:40.320Z,86.06
2019-05-22T10:36:45.319Z,85.82
2019-05-22T10:37:50.884Z,85.40
2019-05-22T10:38:56.380Z,84.86
2019-05-22T10:40:01.427Z,85.31
2019-05-22T10:41:06.804Z,85.75
2019-05-22T10:42:12.241Z,84.06
2019-05-22T10:43:17.367Z,84.14
2019-05-22T10:44:22.402Z,84.83
2019-05-22T10:45:27.637Z,84.75
2019-05-22T10:46:33.043Z,84.31
2019-05-22T10:47:38.189Z,84.28
2019-05-22T10:48:43.819Z,83.81
2019-05-22T10:49:48.972Z,84.62
2019-05-22T10:50:54.203Z,84.47
2019-05-22T10:51:58.798Z,84.49
2019-05-22T10:53:04.415Z,84.01
2019-05-22T10:54:09.650Z,84.01
2019-05-22T10:55:16.789Z,83.59
2019-05-22T10:56:21.320Z,83.59
2019-05-22T10:57:26.832Z,83.88
2019-05-22T10:58:31.292Z,82.92
2019-05-22T10:59:36.483Z,83.20
2019-05-22T11:00:41.936Z,82.88
2019-05-22T11:01:48.114Z,84.25
2019-05-22T11:02:52.723Z,83.35
2019-05-22T11:03:58.421Z,83.28
2019-05-22T11:05:03.842Z,84.15
2019-05-22T11:06:09.286Z,83.33
2019-05-22T11:07:14.962Z,84.76
2019-05-22T11:08:20.319Z,84.78
2019-05-22T11:09:25.417Z,85.03
2019-05-22T11:10:30.474Z,84.57
2019-05-22T11:11:34.930Z,84.71
2019-05-22T11:12:40.524Z,84.45
2019-05-22T11:14:00.025Z,83.07
2019-05-22T11:14:52.516Z,83.33
2019-05-22T11:15:59.076Z,83.58
2019-05-22T11:17:04.405Z,84.21
2019-05-22T11:18:09.475Z,83.77
2019-05-22T11:19:14.900Z,83.32
2019-05-22T11:20:20.048Z,82.27
2019-05-22T11:21:25.920Z,83.01
2019-05-22T11:22:30.540Z,83.72
2019-05-22T11:23:50.490Z,84.53
2019-05-22T11:24:41.855Z,84.81
2019-05-22T11:25:47.329Z,84.53
2019-05-22T11:26:52.772Z,83.55
2019-05-22T11:27:57.841Z,84.69
2019-05-22T11:29:03.677Z,85.20
2019-05-22T11:30:12.002Z,85.25
2019-05-22T11:31:16.729Z,84.61
2019-05-22T11:32:22.421Z,84.60
2019-05-22T11:33:26.927Z,84.40
2019-05-22T11:34:32.068Z,84.38
2019-05-22T11:35:36.561Z,83.44
2019-05-22T11:36:41.783Z,83.96
2019-05-22T11:37:47.431Z,84.19
2019-05-22T11:38:52.439Z,83.85
2019-05-22T11:39:57.485Z,83.65
2019-05-22T11:41:03.301Z,83.64
2019-05-22T11:42:09.247Z,83.17
2019-05-22T11:43:15.470Z,83.16
2019-05-22T11:44:20.226Z,83.20
2019-05-22T11:45:25.513Z,83.61
2019-05-22T11:46:30.101Z,83.11
2019-05-22T11:47:35.419Z,83.15
2019-05-22T11:48:39.993Z,83.34
2019-05-22T11:49:45.371Z,82.63
2019-05-22T11:50:51.087Z,83.93
2019-05-22T11:51:56.433Z,82.78
2019-05-22T11:53:01.331Z,82.37
2019-05-22T11:54:09.683Z,82.01
2019-05-22T11:55:14.671Z,82.53
2019-05-22T11:56:20.708Z,82.95
2019-05-22T11:57:26.705Z,81.74
2019-05-22T11:58:32.515Z,82.35
2019-05-22T11:59:38.317Z,82.84
2019-05-22T12:00:43.351Z,83.59
2019-05-22T12:01:48.220Z,83.27
2019-05-22T12:02:53.997Z,83.11
2019-05-22T12:04:00.742Z,82.33
2019-05-22T12:05:07.193Z,83.34
2019-05-22T12:06:12.752Z,83.17
2019-05-22T12:07:17.965Z,83.81
2019-05-22T12:08:25.238Z,83.25
2019-05-22T12:09:32.140Z,83.81
2019-05-22T12:10:38.125Z,83.62
2019-05-22T12:11:43.617Z,83.75
2019-05-22T12:12:49.442Z,85.14
2019-05-22T12:13:55.535Z,84.62
2019-05-22T12:15:00.295Z,84.63
2019-05-22T12:16:06.341Z,83.91
2019-05-22T12:17:11.493Z,84.53
2019-05-22T12:18:16.544Z,84.47
2019-05-22T12:19:22.618Z,83.49
2019-05-22T12:20:28.301Z,84.35
2019-05-22T12:21:32.802Z,85.23
2019-05-22T12:22:38.222Z,84.48
2019-05-22T12:23:43.327Z,85.53
2019-05-22T12:24:48.476Z,85.05
2019-05-22T12:25:53.049Z,84.54
2019-05-22T12:26:58.234Z,85.59
2019-05-22T12:28:03.464Z,85.74
2019-05-22T12:29:08.597Z,86.39
2019-05-22T12:30:14.968Z,86.37
2019-05-22T12:31:21.615Z,86.24
2019-05-22T12:32:27.737Z,87.21
2019-05-22T12:33:33.469Z,87.14
2019-05-22T12:34:38.216Z,87.03
2019-05-22T12:35:44.444Z,86.51
2019-05-22T12:36:51.451Z,87.00
2019-05-22T12:37:56.822Z,87.31
2019-05-22T12:39:02.693Z,87.12
2019-05-22T12:40:11.418Z,86.61
2019-05-22T12:41:18.357Z,88.02
2019-05-22T12:42:24.825Z,88.06
2019-05-22T12:43:31.766Z,88.56
2019-05-22T12:44:37.821Z,88.67
2019-05-22T12:45:42.704Z,87.92
2019-05-22T12:46:47.779Z,88.60
2019-05-22T12:47:53.077Z,88.44
2019-05-22T12:48:58.266Z,87.81
2019-05-22T12:50:03.290Z,87.89
2019-05-22T12:51:08.525Z,88.20
2019-05-22T12:52:13.323Z,88.28
2019-05-22T12:53:18.873Z,87.81
2019-05-22T12:54:23.295Z,86.39
2019-05-22T12:55:30.144Z,88.06
2019-05-22T12:56:35.371Z,88.32
2019-05-22T12:57:41.221Z,88.44
2019-05-22T12:58:46.467Z,88.21
2019-05-22T12:59:52.506Z,88.28
2019-05-22T13:00:58.475Z,87.51
2019-05-22T13:02:03.591Z,87.33
2019-05-22T13:03:08.739Z,87.03
2019-05-22T13:04:15.101Z,86.99
2019-05-22T13:05:20.742Z,87.50
2019-05-22T13:06:26.411Z,87.30
2019-05-22T13:07:31.683Z,86.87
2019-05-22T13:08:38.117Z,86.88
2019-05-22T13:09:43.202Z,86.95
2019-05-22T13:10:49.026Z,87.61
2019-05-22T13:11:53.727Z,86.81
2019-05-22T13:12:59.168Z,85.30
2019-05-22T13:14:03.714Z,86.06
2019-05-22T13:15:11.061Z,86.21
2019-05-22T13:16:16.276Z,86.17
2019-05-22T13:17:22.668Z,85.25
2019-05-22T13:18:28.002Z,85.69
2019-05-22T13:19:34.604Z,85.65
2019-05-22T13:20:44.254Z,85.73
2019-05-22T13:21:52.283Z,85.56
2019-05-22T13:22:58.228Z,85.67
2019-05-22T13:24:06.307Z,85.35
2019-05-22T13:25:12.270Z,85.15
2019-05-22T13:26:18.605Z,84.56
2019-05-22T13:27:23.633Z,84.95
2019-05-22T13:28:31.122Z,85.51
2019-05-22T13:29:36.167Z,86.00
2019-05-22T13:30:43.377Z,86.24
2019-05-22T13:31:49.685Z,86.12
2019-05-22T13:32:55.758Z,85.31
2019-05-22T13:34:02.201Z,84.67
2019-05-22T13:35:09.823Z,85.01
2019-05-22T13:36:15.832Z,84.07
2019-05-22T13:37:20.827Z,85.90
2019-05-22T13:38:26.861Z,86.38
2019-05-22T13:39:32.453Z,86.53
2019-05-22T13:40:37.606Z,85.11
2019-05-22T13:41:42.657Z,85.52
2019-05-22T13:42:47.782Z,85.84
2019-05-22T13:43:55.352Z,85.20
2019-05-22T13:44:59.921Z,84.86
2019-05-22T13:46:05.662Z,85.20
2019-05-22T13:47:11.902Z,85.06
2019-05-22T13:48:16.918Z,85.04
2019-05-22T13:49:21.782Z,85.22
2019-05-22T13:50:28.974Z,85.50
2019-05-22T13:51:34.135Z,84.99
2019-05-22T13:52:40.435Z,84.87
2019-05-22T13:53:46.010Z,85.05
2019-05-22T13:54:51.627Z,85.10
2019-05-22T13:55:56.101Z,85.20
2019-05-22T13:57:01.641Z,85.31
2019-05-22T13:58:07.962Z,86.19
2019-05-22T13:59:14.587Z,86.33
2019-05-22T14:00:22.254Z,86.23
2019-05-22T14:01:27.888Z,85.44
2019-05-22T14:02:32.963Z,86.04
2019-05-22T14:03:39.426Z,85.97
2019-05-22T14:04:45.262Z,85.78
2019-05-22T14:05:50.574Z,86.22
2019-05-22T14:06:55.138Z,85.74
2019-05-22T14:08:01.278Z,86.11
2019-05-22T14:09:08.761Z,86.47
2019-05-22T14:10:14.337Z,86.30
2019-05-22T14:11:19.358Z,85.81
2019-05-22T14:12:24.581Z,85.77
2019-05-22T14:13:29.171Z,85.92
2019-05-22T14:14:34.238Z,86.38
2019-05-22T14:15:52.012Z,85.98
2019-05-22T14:16:49.023Z,85.76
2019-05-22T14:17:52.676Z,86.37